Time;durP1;ratioP1;P1;durP2;ratioP2;P2;SDS_P1;SDS_P2;PMS_P1;PMS_P2;Temp;Humidity;BMP_temperature;BMP_pressure;BME280_temperature;BME280_humidity;BME280_pressure;Samples;Min_cycle;Max_cycle;Signal;HPM_P1;HPM_P2
2023/08/17 00:01:32;;;;;;;11.95;6.82;;;;;;;17.88;100.00;97601.56;5006749;28;20105;-49
2023/08/17 00:03:58;;;;;;;14.93;8.90;;;;;;;17.86;100.00;97606.50;4982649;28;20108;-50
2023/08/17 00:06:25;;;;;;;12.27;8.05;;;;;;;17.87;100.00;97610.91;5000219;28;20547;-51
2023/08/17 00:08:52;;;;;;;11.98;7.43;;;;;;;17.90;100.00;97610.28;5004177;28;20038;-52
2023/08/17 00:11:19;;;;;;;12.50;8.57;;;;;;;17.84;100.00;97608.75;5020609;28;20115;-51
2023/08/17 00:13:45;;;;;;;12.23;8.18;;;;;;;17.77;100.00;97596.22;5009255;28;20530;-51
2023/08/17 00:16:12;;;;;;;12.95;8.00;;;;;;;17.77;100.00;97617.31;4999400;28;20043;-52
2023/08/17 00:18:39;;;;;;;13.90;9.00;;;;;;;17.85;100.00;97648.72;4997132;28;20036;-54
2023/08/17 00:21:05;;;;;;;12.55;7.47;;;;;;;17.80;100.00;97619.47;4982535;28;21219;-52
2023/08/17 00:23:32;;;;;;;12.30;7.55;;;;;;;17.81;100.00;97607.41;5011764;28;20059;-51
2023/08/17 00:25:58;;;;;;;10.50;7.22;;;;;;;17.74;100.00;97585.88;5022335;28;20518;-52
2023/08/17 00:28:25;;;;;;;9.40;7.07;;;;;;;17.60;100.00;97583.03;5022772;28;20047;-52
2023/08/17 00:30:52;;;;;;;10.25;7.80;;;;;;;17.61;100.00;97616.69;4939834;28;20070;-51
2023/08/17 00:33:19;;;;;;;16.02;7.85;;;;;;;17.59;100.00;97614.25;4951190;28;20065;-49
2023/08/17 00:35:46;;;;;;;11.95;7.25;;;;;;;17.55;100.00;97610.47;4967903;28;20046;-51
2023/08/17 00:38:12;;;;;;;13.30;7.45;;;;;;;17.51;100.00;97607.47;5007344;28;20058;-54
2023/08/17 00:40:39;;;;;;;8.60;6.47;;;;;;;17.54;100.00;97630.72;5041715;28;20045;-54
2023/08/17 00:43:05;;;;;;;9.65;6.70;;;;;;;17.44;100.00;97604.31;4984687;28;20039;-52
2023/08/17 00:45:32;;;;;;;11.75;7.88;;;;;;;17.27;100.00;97605.56;5006948;28;20040;-50
2023/08/17 00:47:59;;;;;;;12.13;7.63;;;;;;;17.21;100.00;97617.66;4990635;28;20046;-50
2023/08/17 00:50:28;;;;;;;19.73;9.50;;;;;;;17.15;100.00;97624.31;5000486;28;20048;-52
2023/08/17 00:52:55;;;;;;;10.68;7.57;;;;;;;17.20;100.00;97643.41;4985225;28;20044;-48
2023/08/17 00:55:22;;;;;;;12.05;7.90;;;;;;;17.19;100.00;97639.03;5029130;28;20064;-49
2023/08/17 00:57:50;;;;;;;16.30;8.48;;;;;;;17.12;100.00;97631.16;5010357;28;20052;-51
2023/08/17 01:00:18;;;;;;;12.50;7.75;;;;;;;17.08;100.00;97624.66;4998441;28;20108;-52
2023/08/17 01:02:46;;;;;;;14.15;7.25;;;;;;;17.07;100.00;97633.97;4996710;28;20399;-51
2023/08/17 01:05:16;;;;;;;10.05;7.43;;;;;;;17.03;100.00;97625.47;4996100;28;20540;-52
2023/08/17 01:07:42;;;;;;;14.85;9.50;;;;;;;17.10;100.00;97630.63;5010500;28;20058;-50
2023/08/17 01:10:10;;;;;;;10.93;8.25;;;;;;;16.97;100.00;97615.69;5021208;28;20572;-51
2023/08/17 01:12:56;;;;;;;15.02;8.05;;;;;;;16.96;100.00;97626.91;5012882;28;20108;-50
2023/08/17 01:15:50;;;;;;;15.02;8.52;;;;;;;17.03;100.00;97638.34;4995130;28;20051;-49
2023/08/17 01:18:24;;;;;;;15.57;8.38;;;;;;;17.02;100.00;97634.78;4983353;28;20399;-52
2023/08/17 01:20:52;;;;;;;15.95;8.45;;;;;;;16.94;100.00;97613.53;4984977;28;20038;-52
2023/08/17 01:23:19;;;;;;;13.73;9.55;;;;;;;16.88;100.00;97607.28;5011462;28;20028;-51
2023/08/17 01:25:46;;;;;;;13.50;8.57;;;;;;;16.98;100.00;97632.91;5028950;28;20038;-50
2023/08/17 01:28:12;;;;;;;16.80;10.20;;;;;;;16.90;100.00;97626.97;5011288;28;20517;-50
2023/08/17 01:30:46;;;;;;;12.73;9.02;;;;;;;17.00;100.00;97636.19;4997634;28;20068;-51
2023/08/17 01:33:24;;;;;;;17.20;8.75;;;;;;;16.98;100.00;97633.72;4983078;28;20668;-51
2023/08/17 01:36:05;;;;;;;14.45;9.30;;;;;;;16.99;100.00;97629.88;4973516;28;20494;-51
2023/08/17 01:38:34;;;;;;;15.65;8.52;;;;;;;17.03;100.00;97630.13;5018893;28;20148;-54
2023/08/17 01:41:03;;;;;;;11.50;7.97;;;;;;;17.03;100.00;97619.19;5031528;28;20041;-50
2023/08/17 01:43:30;;;;;;;12.45;8.75;;;;;;;17.18;100.00;97642.88;5010486;28;20123;-50
2023/08/17 01:45:59;;;;;;;13.40;8.73;;;;;;;17.33;100.00;97652.88;5005940;28;20057;-52
2023/08/17 01:48:25;;;;;;;12.43;8.32;;;;;;;17.27;100.00;97623.91;5008437;28;20048;-50
2023/08/17 01:50:52;;;;;;;12.45;8.70;;;;;;;17.26;100.00;97617.63;4976258;28;20088;-53
2023/08/17 01:53:19;;;;;;;12.18;7.60;;;;;;;17.27;100.00;97611.03;5017699;28;20736;-52
2023/08/17 01:55:46;;;;;;;13.40;8.60;;;;;;;17.35;100.00;97616.97;5026427;28;20126;-54
2023/08/17 01:58:13;;;;;;;14.52;9.18;;;;;;;17.42;100.00;97622.91;5022715;28;20494;-53
2023/08/17 02:00:39;;;;;;;12.43;8.98;;;;;;;17.48;100.00;97621.78;5004028;28;20599;-55
2023/08/17 02:03:06;;;;;;;12.95;8.70;;;;;;;17.51;100.00;97615.69;4993817;28;20832;-49
2023/08/17 02:05:33;;;;;;;13.15;8.45;;;;;;;17.53;100.00;97590.78;5015372;28;20052;-52
2023/08/17 02:07:59;;;;;;;15.63;8.77;;;;;;;17.58;100.00;97584.44;5039033;28;20036;-52
2023/08/17 02:10:27;;;;;;;10.35;8.07;;;;;;;17.57;100.00;97569.13;5009470;28;20036;-54
2023/08/17 02:12:54;;;;;;;13.05;7.82;;;;;;;17.56;100.00;97562.81;4997656;28;20046;-49
2023/08/17 02:15:31;;;;;;;12.60;7.40;;;;;;;17.54;100.00;97538.47;5001374;28;20047;-51
2023/08/17 02:18:00;;;;;;;14.68;8.48;;;;;;;17.61;100.00;97553.72;4993232;28;20134;-49
2023/08/17 02:20:28;;;;;;;9.77;7.43;;;;;;;17.64;100.00;97564.91;5022300;28;20064;-52
2023/08/17 02:22:54;;;;;;;15.50;7.60;;;;;;;17.67;100.00;97558.03;5002370;28;20036;-50
2023/08/17 02:25:21;;;;;;;11.90;7.60;;;;;;;17.68;100.00;97540.47;5026001;28;20054;-50
2023/08/17 02:27:51;;;;;;;10.43;8.25;;;;;;;17.79;100.00;97563.06;5017349;28;20046;-49
2023/08/17 02:30:17;;;;;;;12.02;7.47;;;;;;;17.80;100.00;97553.75;4986277;28;20118;-50
2023/08/17 02:32:44;;;;;;;11.82;7.35;;;;;;;17.74;100.00;97542.06;4988860;28;20042;-51
2023/08/17 02:35:10;;;;;;;11.20;7.75;;;;;;;17.72;100.00;97543.47;4992115;28;20485;-51
2023/08/17 02:37:37;;;;;;;12.85;7.63;;;;;;;17.74;100.00;97542.06;5020063;28;20036;-48
2023/08/17 02:40:04;;;;;;;10.93;7.32;;;;;;;17.76;100.00;97553.50;5025197;28;20741;-49
2023/08/17 02:42:30;;;;;;;11.82;7.45;;;;;;;17.76;100.00;97548.03;4985375;28;20043;-51
2023/08/17 02:44:57;;;;;;;13.20;8.57;;;;;;;17.80;100.00;97557.28;4989948;28;20092;-50
2023/08/17 02:47:24;;;;;;;11.10;8.57;;;;;;;17.79;100.00;97541.16;4978365;28;20051;-48
2023/08/17 02:49:52;;;;;;;12.88;8.40;;;;;;;17.80;100.00;97540.84;4994947;28;20088;-53
2023/08/17 02:52:18;;;;;;;13.98;9.43;;;;;;;17.80;100.00;97543.59;4987246;28;20032;-51
2023/08/17 02:54:45;;;;;;;13.75;9.57;;;;;;;17.81;100.00;97553.44;5023751;28;20122;-54
2023/08/17 02:57:13;;;;;;;12.55;8.68;;;;;;;17.78;100.00;97543.09;5012098;28;20135;-52
2023/08/17 02:59:39;;;;;;;14.60;8.85;;;;;;;17.80;100.00;97554.56;4997236;28;20153;-51
2023/08/17 03:02:06;;;;;;;15.05;9.80;;;;;;;17.85;100.00;97564.63;4984897;28;20093;-50
2023/08/17 03:04:34;;;;;;;18.05;10.70;;;;;;;17.80;100.00;97561.97;5013305;28;20245;-51
2023/08/17 03:07:01;;;;;;;18.13;11.23;;;;;;;17.87;100.00;97578.03;5020757;28;20074;-51
2023/08/17 03:09:27;;;;;;;23.17;14.82;;;;;;;17.85;100.00;97585.72;5019585;28;20036;-49
2023/08/17 03:11:54;;;;;;;23.77;13.23;;;;;;;17.84;100.00;97587.63;4996099;28;20684;-49
2023/08/17 03:14:21;;;;;;;31.33;14.68;;;;;;;17.87;100.00;97587.06;5007460;28;20050;-51
2023/08/17 03:16:48;;;;;;;39.38;17.00;;;;;;;17.84;100.00;97590.38;4978988;28;20130;-50
2023/08/17 03:19:15;;;;;;;33.10;15.52;;;;;;;17.84;100.00;97595.84;5013525;28;20043;-53
2023/08/17 03:21:43;;;;;;;31.10;14.95;;;;;;;17.84;100.00;97589.56;5009560;28;20178;-49
2023/08/17 03:24:10;;;;;;;36.92;17.02;;;;;;;17.84;100.00;97601.31;5011773;28;20061;-49
2023/08/17 03:26:37;;;;;;;36.10;17.33;;;;;;;17.81;100.00;97588.25;5014837;28;20035;-47
2023/08/17 03:29:08;;;;;;;38.25;17.20;;;;;;;17.84;100.00;97603.25;4997957;28;20552;-51
2023/08/17 03:31:35;;;;;;;34.80;17.40;;;;;;;17.80;100.00;97603.84;4992655;28;20092;-48
2023/08/17 03:34:01;;;;;;;42.38;17.98;;;;;;;17.80;100.00;97603.06;5001400;28;20090;-52
2023/08/17 03:36:28;;;;;;;39.92;18.13;;;;;;;17.85;100.00;97613.09;5046981;28;20044;-54
2023/08/17 03:38:55;;;;;;;44.53;17.60;;;;;;;17.87;100.00;97608.97;5022943;28;20102;-51
2023/08/17 03:41:23;;;;;;;44.15;17.98;;;;;;;17.88;100.00;97613.31;5012482;28;20482;-52
2023/08/17 03:43:50;;;;;;;50.60;19.83;;;;;;;17.88;100.00;97601.56;4981806;28;20039;-52
2023/08/17 03:46:16;;;;;;;42.05;18.40;;;;;;;17.89;100.00;97617.72;4961801;28;20043;-49
2023/08/17 03:48:43;;;;;;;45.97;19.85;;;;;;;17.90;100.00;97608.38;5009210;28;20514;-50
2023/08/17 03:51:09;;;;;;;47.60;18.48;;;;;;;17.99;100.00;97608.53;5038115;28;20036;-49
2023/08/17 03:53:36;;;;;;;43.45;18.73;;;;;;;18.00;100.00;97610.16;4998644;28;20120;-48
2023/08/17 03:56:03;;;;;;;37.15;17.48;;;;;;;17.96;100.00;97622.00;5008928;28;20195;-50
2023/08/17 03:58:34;;;;;;;38.10;17.08;;;;;;;17.95;100.00;97623.94;4992186;28;20049;-50
2023/08/17 04:01:01;;;;;;;30.52;14.52;;;;;;;17.98;100.00;97617.84;4992623;28;20062;-53
2023/08/17 04:03:29;;;;;;;29.80;14.75;;;;;;;18.02;100.00;97618.91;5000827;28;20510;-50
2023/08/17 04:05:56;;;;;;;34.95;16.67;;;;;;;18.02;100.00;97624.38;5033239;28;20114;-51
2023/08/17 04:08:23;;;;;;;34.72;16.08;;;;;;;18.03;100.00;97628.75;5027680;28;20046;-53
2023/08/17 04:10:49;;;;;;;36.45;18.52;;;;;;;18.01;100.00;97627.41;5012074;28;20046;-49
2023/08/17 04:13:16;;;;;;;31.77;16.30;;;;;;;17.99;100.00;97632.38;4974155;28;20498;-53
2023/08/17 04:15:42;;;;;;;34.85;16.10;;;;;;;18.00;100.00;97621.13;4987923;28;20051;-48
2023/08/17 04:18:09;;;;;;;45.97;18.90;;;;;;;18.00;100.00;97629.34;4963266;28;20445;-52
2023/08/17 04:20:36;;;;;;;43.80;19.05;;;;;;;18.00;100.00;97643.03;5044936;28;20482;-49
2023/08/17 04:23:03;;;;;;;45.97;19.98;;;;;;;18.00;100.00;97637.56;5004315;28;20051;-48
2023/08/17 04:25:29;;;;;;;43.38;18.88;;;;;;;18.07;100.00;97638.00;5004370;28;21176;-53
2023/08/17 04:27:56;;;;;;;49.60;19.52;;;;;;;18.15;100.00;97644.78;4996574;28;20088;-51
2023/08/17 04:30:23;;;;;;;45.63;18.90;;;;;;;18.11;100.00;97641.00;4991440;28;20098;-52
2023/08/17 04:32:56;;;;;;;38.55;17.38;;;;;;;18.11;100.00;97640.19;4987650;28;20046;-49
2023/08/17 04:35:22;;;;;;;42.15;17.50;;;;;;;18.10;100.00;97644.03;5021205;28;20052;-50
2023/08/17 04:37:50;;;;;;;33.78;16.05;;;;;;;18.14;100.00;97651.38;5012607;28;20500;-50
2023/08/17 04:40:16;;;;;;;30.80;14.25;;;;;;;18.19;100.00;97648.56;5031398;28;20054;-54
2023/08/17 04:42:43;;;;;;;33.05;16.02;;;;;;;18.16;100.00;97646.41;4980880;28;20118;-56
2023/08/17 04:45:10;;;;;;;25.50;13.15;;;;;;;18.15;100.00;97631.09;4981359;28;20045;-54
2023/08/17 04:47:40;;;;;;;28.63;12.70;;;;;;;18.11;100.00;97618.28;5001614;28;20330;-53
2023/08/17 04:50:07;;;;;;;32.53;13.77;;;;;;;18.09;100.00;97612.28;5006302;28;20130;-55
2023/08/17 04:52:34;;;;;;;24.23;12.30;;;;;;;18.11;100.00;97612.78;4981880;28;20042;-55
2023/08/17 04:55:01;;;;;;;25.63;12.57;;;;;;;18.06;100.00;97611.72;4980847;28;20123;-55
2023/08/17 04:57:30;;;;;;;24.10;11.27;;;;;;;18.06;100.00;97610.91;4989363;28;20051;-53
2023/08/17 04:59:57;;;;;;;22.25;11.98;;;;;;;18.11;100.00;97610.88;4973031;28;20047;-54
2023/08/17 05:02:24;;;;;;;24.15;12.85;;;;;;;18.15;100.00;97611.91;4999048;28;20049;-48
2023/08/17 05:04:52;;;;;;;22.85;12.18;;;;;;;18.09;100.00;97595.84;5009914;28;20040;-60
2023/08/17 05:07:18;;;;;;;20.27;11.48;;;;;;;18.10;100.00;97584.59;5010789;28;20055;-63
2023/08/17 05:09:45;;;;;;;21.92;11.90;;;;;;;18.19;100.00;97602.00;4997644;28;21625;-62
2023/08/17 05:12:13;;;;;;;17.35;9.93;;;;;;;18.20;100.00;97583.59;4965842;28;20480;-63
2023/08/17 05:14:39;;;;;;;16.45;10.38;;;;;;;18.28;100.00;97582.13;4976802;28;20117;-63
2023/08/17 05:17:06;;;;;;;21.77;10.57;;;;;;;18.33;100.00;97580.09;4990427;28;20059;-63
2023/08/17 05:19:33;;;;;;;19.23;11.07;;;;;;;18.36;100.00;97556.78;5025119;28;20070;-63
2023/08/17 05:22:00;;;;;;;16.52;9.98;;;;;;;18.32;100.00;97523.66;5002984;28;20155;-63
2023/08/17 05:24:27;;;;;;;16.80;9.70;;;;;;;18.24;100.00;97504.38;5025176;28;20129;-63
2023/08/17 05:26:54;;;;;;;13.68;8.73;;;;;;;18.10;100.00;97526.22;4992834;28;20039;-62
2023/08/17 05:29:20;;;;;;;20.10;10.90;;;;;;;18.16;100.00;97550.50;4981668;28;20139;-63
2023/08/17 05:31:47;;;;;;;17.95;10.52;;;;;;;18.24;100.00;97551.75;5001378;28;20042;-63
2023/08/17 05:34:14;;;;;;;16.60;9.90;;;;;;;18.25;100.00;97517.78;5028973;28;20045;-63
2023/08/17 05:36:41;;;;;;;14.82;9.70;;;;;;;18.29;100.00;97524.28;5032615;28;20037;-63
2023/08/17 05:39:08;;;;;;;16.17;9.63;;;;;;;18.17;100.00;97500.06;5014267;28;20102;-63
2023/08/17 05:41:35;;;;;;;18.13;11.48;;;;;;;18.11;100.00;97525.09;5004625;28;20555;-63
2023/08/17 05:44:02;;;;;;;19.23;11.00;;;;;;;18.16;100.00;97550.50;4973969;28;20563;-63
2023/08/17 05:46:28;;;;;;;18.05;11.15;;;;;;;18.13;100.00;97522.91;5009739;28;20051;-63
2023/08/17 05:48:55;;;;;;;16.15;10.60;;;;;;;18.26;100.00;97535.00;5034494;28;20551;-63
2023/08/17 05:51:22;;;;;;;18.33;11.40;;;;;;;18.33;100.00;97521.75;5022774;28;20498;-63
2023/08/17 05:53:48;;;;;;;16.35;11.00;;;;;;;18.44;100.00;97536.94;5013875;28;20200;-62
2023/08/17 05:56:15;;;;;;;21.92;12.63;;;;;;;18.38;100.00;97498.91;5013737;28;20047;-63
2023/08/17 05:58:41;;;;;;;17.83;12.00;;;;;;;18.47;100.00;97508.09;4982960;28;20052;-62
2023/08/17 06:01:10;;;;;;;20.27;12.93;;;;;;;18.55;100.00;97512.88;5015852;28;20577;-63
2023/08/17 06:03:37;;;;;;;20.35;12.90;;;;;;;18.63;100.00;97500.41;5047422;28;20044;-63
2023/08/17 06:06:05;;;;;;;17.90;11.98;;;;;;;18.68;100.00;97494.81;5023378;28;20048;-63
2023/08/17 06:08:32;;;;;;;18.13;11.90;;;;;;;18.70;100.00;97486.28;5016667;28;20055;-62
2023/08/17 06:10:59;;;;;;;21.67;12.40;;;;;;;18.75;100.00;97480.72;4985855;28;20501;-62
2023/08/17 06:13:25;;;;;;;20.73;11.15;;;;;;;18.81;100.00;97476.75;4975533;28;20050;-63
2023/08/17 06:15:52;;;;;;;18.67;13.07;;;;;;;18.70;100.00;97472.59;4995837;28;20567;-63
2023/08/17 06:18:20;;;;;;;18.42;12.35;;;;;;;18.67;100.00;97478.66;5050219;28;20047;-63
2023/08/17 06:20:48;;;;;;;21.27;13.65;;;;;;;18.54;100.00;97486.56;5024695;28;20055;-62
2023/08/17 06:23:14;;;;;;;19.20;13.35;;;;;;;18.41;100.00;97503.78;5030431;28;20082;-63
2023/08/17 06:25:41;;;;;;;22.42;13.95;;;;;;;18.34;100.00;97504.19;4991998;28;20047;-62
2023/08/17 06:28:07;;;;;;;23.10;14.35;;;;;;;18.45;100.00;97522.09;4979636;28;20073;-62
2023/08/17 06:30:34;;;;;;;19.10;13.70;;;;;;;18.44;100.00;97504.03;4976160;28;20674;-63
2023/08/17 06:33:00;;;;;;;21.63;13.73;;;;;;;18.65;100.00;97522.03;5017917;28;20044;-62
2023/08/17 06:35:27;;;;;;;19.58;13.43;;;;;;;18.68;100.00;97489.34;4999779;28;20072;-62
2023/08/17 06:37:57;;;;;;;19.27;13.30;;;;;;;18.78;100.00;97476.53;5006784;28;20045;-65
2023/08/17 06:40:24;;;;;;;19.50;13.98;;;;;;;18.74;100.00;97470.84;4987997;28;20046;-65
2023/08/17 06:42:52;;;;;;;17.15;12.45;;;;;;;18.80;100.00;97475.13;4984582;28;20406;-65
2023/08/17 06:45:18;;;;;;;20.58;12.60;;;;;;;18.92;100.00;97471.06;5011369;28;20519;-63
2023/08/17 06:47:45;;;;;;;18.65;12.68;;;;;;;19.02;100.00;97457.13;5032145;28;20049;-63
2023/08/17 06:50:12;;;;;;;22.83;13.63;;;;;;;18.85;100.00;97463.25;5019516;28;20042;-62
2023/08/17 06:52:40;;;;;;;20.45;12.77;;;;;;;18.98;100.00;97458.88;5006739;28;20047;-62
2023/08/17 06:55:06;;;;;;;18.40;12.48;;;;;;;18.96;100.00;97456.44;4999747;28;20054;-63
2023/08/17 06:57:33;;;;;;;18.00;12.30;;;;;;;19.00;100.00;97451.16;4981820;28;20066;-62
2023/08/17 07:00:00;;;;;;;17.65;11.23;;;;;;;18.96;100.00;97456.44;4990900;28;20088;-62
2023/08/17 07:02:26;;;;;;;16.73;10.55;;;;;;;19.17;100.00;97463.47;5037512;28;20091;-62
2023/08/17 07:05:05;;;;;;;15.73;11.13;;;;;;;19.22;100.00;97450.47;5017060;28;20536;-63
2023/08/17 07:07:31;;;;;;;17.60;11.38;;;;;;;19.28;100.00;97450.34;5014190;28;20425;-62
2023/08/17 07:09:58;;;;;;;16.25;10.85;;;;;;;19.19;100.00;97444.75;4989582;28;20129;-63
2023/08/17 07:12:24;;;;;;;13.90;10.43;;;;;;;19.31;100.00;97445.03;4971220;28;20062;-61
2023/08/17 07:14:51;;;;;;;18.58;11.32;;;;;;;19.00;100.00;97458.56;4950728;28;20140;-61
2023/08/17 07:17:18;;;;;;;15.48;11.25;;;;;;;19.16;100.00;97457.16;5011040;28;20557;-61
2023/08/17 07:19:44;;;;;;;16.70;11.52;;;;;;;19.45;100.00;97457.94;5015264;28;20044;-61
2023/08/17 07:22:31;;;;;;;13.07;10.57;;;;;;;19.71;100.00;97449.09;4993412;28;20173;-62
2023/08/17 07:24:57;;;;;;;15.68;10.32;;;;;;;19.89;100.00;97447.31;4990694;28;20047;-62
2023/08/17 07:27:24;;;;;;;15.90;11.30;;;;;;;20.01;100.00;97444.84;4969145;28;20100;-63
2023/08/17 07:29:51;;;;;;;15.40;11.15;;;;;;;20.08;100.00;97444.41;4974940;28;20068;-63
2023/08/17 07:32:18;;;;;;;14.60;10.18;;;;;;;20.22;100.00;97432.53;5019861;28;20125;-63
2023/08/17 07:34:45;;;;;;;13.95;10.23;;;;;;;20.46;100.00;97431.38;4988806;28;20099;-62
2023/08/17 07:37:13;;;;;;;14.93;10.75;;;;;;;20.56;100.00;97435.81;5004013;28;20499;-60
2023/08/17 07:39:41;;;;;;;13.13;9.55;;;;;;;20.65;100.00;97436.66;4991283;28;20040;-62
2023/08/17 07:42:08;;;;;;;14.75;10.75;;;;;;;20.52;100.00;97443.84;4986568;28;20033;-63
2023/08/17 07:44:35;;;;;;;13.50;9.57;;;;;;;20.55;100.00;97445.97;5014332;28;20766;-63
2023/08/17 07:47:01;;;;;;;12.57;9.68;;;;;;;20.49;100.00;97444.50;5024958;28;20039;-62
2023/08/17 07:49:28;;;;;;;11.73;9.00;;;;;;;20.33;100.00;97453.16;5017708;28;20139;-61
2023/08/17 07:52:15;;;;;;;14.32;10.45;;;;;;;20.43;100.00;97449.31;4997830;28;20135;-61
2023/08/17 07:54:42;;;;;;;17.02;11.48;;;;;;;20.53;100.00;97443.53;4990909;28;20036;-62
2023/08/17 07:57:09;;;;;;;16.88;11.10;;;;;;;20.67;100.00;97451.69;4977757;28;20047;-62
2023/08/17 07:59:35;;;;;;;12.27;8.90;;;;;;;20.85;100.00;97442.69;5009273;28;20040;-62
2023/08/17 08:02:02;;;;;;;14.02;9.98;;;;;;;20.90;100.00;97437.09;4987518;28;20043;-62
2023/08/17 08:04:28;;;;;;;13.55;9.90;;;;;;;20.98;100.00;97438.25;5020469;28;20134;-61
2023/08/17 08:06:55;;;;;;;16.27;11.68;;;;;;;20.76;100.00;97435.25;4989886;28;20118;-61
2023/08/17 08:09:21;;;;;;;16.88;12.13;;;;;;;20.75;100.00;97441.06;4979177;28;20050;-62
2023/08/17 08:11:48;;;;;;;14.52;10.90;;;;;;;20.88;100.00;97433.84;4997248;28;20335;-62
2023/08/17 08:14:15;;;;;;;15.35;11.30;;;;;;;20.95;100.00;97428.69;5002048;28;20043;-62
2023/08/17 08:16:41;;;;;;;16.48;10.98;;;;;;;20.99;100.00;97417.84;5003550;28;20166;-61
2023/08/17 08:19:08;;;;;;;14.05;10.65;;;;;;;20.94;100.00;97424.31;5006530;28;20044;-61
2023/08/17 08:21:34;;;;;;;16.48;10.90;;;;;;;21.01;100.00;97426.59;4997049;28;20669;-62
2023/08/17 08:24:01;;;;;;;11.35;8.15;;;;;;;21.06;100.00;97431.97;5007289;28;20051;-62
2023/08/17 08:26:28;;;;;;;15.90;10.68;;;;;;;20.94;100.00;97421.56;4996350;28;20114;-62
2023/08/17 08:28:54;;;;;;;12.10;9.70;;;;;;;20.88;100.00;97425.59;5019344;28;20072;-65
2023/08/17 08:31:21;;;;;;;12.30;9.60;;;;;;;20.90;100.00;97417.84;5036016;28;20051;-62
2023/08/17 08:33:47;;;;;;;11.07;8.25;;;;;;;20.92;100.00;97423.81;4992796;28;20054;-62
2023/08/17 08:36:14;;;;;;;12.50;9.40;;;;;;;21.02;100.00;97418.03;5019507;28;20048;-62
2023/08/17 08:38:41;;;;;;;10.77;7.60;;;;;;;21.14;100.00;97417.41;4998485;28;20482;-62
2023/08/17 08:41:08;;;;;;;12.20;7.68;;;;;;;21.24;100.00;97415.47;4977166;28;20055;-64
2023/08/17 08:43:35;;;;;;;8.52;6.85;;;;;;;21.40;100.00;97416.63;4974758;28;20039;-63
2023/08/17 08:46:02;;;;;;;10.02;8.32;;;;;;;21.53;100.00;97414.06;5024595;28;20045;-62
2023/08/17 08:48:29;;;;;;;11.82;9.15;;;;;;;21.47;100.00;97415.31;5030190;28;20367;-60
2023/08/17 08:50:59;;;;;;;9.88;5.88;;;;;;;21.54;100.00;97415.66;4998283;28;20035;-61
2023/08/17 08:53:37;;;;;;;11.30;7.82;;;;;;;21.76;100.00;97417.47;4997941;28;20047;-62
2023/08/17 08:56:11;;;;;;;10.10;7.30;;;;;;;21.86;100.00;97410.03;4986339;28;20125;-61
2023/08/17 08:58:39;;;;;;;11.45;8.57;;;;;;;21.94;100.00;97410.03;5015742;28;20041;-62
2023/08/17 09:01:07;;;;;;;8.95;7.50;;;;;;;21.96;100.00;97406.91;5039292;28;20044;-63
2023/08/17 09:03:35;;;;;;;9.60;7.22;;;;;;;22.04;100.00;97406.09;4989503;28;20043;-61
2023/08/17 09:06:03;;;;;;;8.65;7.28;;;;;;;22.12;100.00;97406.41;4992070;28;20777;-62
2023/08/17 09:08:30;;;;;;;12.63;8.02;;;;;;;22.12;100.00;97400.91;4993476;28;20055;-61
2023/08/17 09:10:57;;;;;;;10.52;7.22;;;;;;;22.19;100.00;97402.00;4970950;28;20049;-62
2023/08/17 09:13:24;;;;;;;10.40;6.53;;;;;;;22.26;100.00;97407.00;5016233;28;20037;-62
2023/08/17 09:15:51;;;;;;;9.15;6.22;;;;;;;22.40;100.00;97408.78;5015165;28;20046;-62
2023/08/17 09:18:17;;;;;;;11.57;7.18;;;;;;;22.62;100.00;97399.47;5009198;28;20533;-62
2023/08/17 09:20:46;;;;;;;9.15;6.88;;;;;;;22.81;100.00;97406.53;5013896;28;20421;-62
2023/08/17 09:23:21;;;;;;;8.65;6.80;;;;;;;23.04;100.00;97401.53;4979630;28;20548;-62
2023/08/17 09:25:51;;;;;;;9.63;6.15;;;;;;;23.21;100.00;97403.38;4976974;28;20503;-62
2023/08/17 09:28:19;;;;;;;9.75;6.90;;;;;;;23.35;99.53;97413.38;5012503;28;20043;-62
2023/08/17 09:31:13;;;;;;;9.00;6.40;;;;;;;23.46;98.45;97419.31;5018607;28;20680;-62
2023/08/17 09:33:39;;;;;;;8.35;6.40;;;;;;;23.60;96.98;97413.53;4997166;28;20078;-62
2023/08/17 09:36:12;;;;;;;9.88;7.03;;;;;;;23.67;95.60;97410.22;5004247;28;20751;-62
2023/08/17 09:38:38;;;;;;;11.52;6.90;;;;;;;23.84;93.57;97410.06;4986051;28;20560;-62
2023/08/17 09:41:06;;;;;;;9.68;6.32;;;;;;;23.96;93.89;97411.28;4986388;28;20699;-62
2023/08/17 09:43:33;;;;;;;8.32;5.55;;;;;;;24.08;93.12;97407.72;5022132;28;20053;-62
2023/08/17 09:46:02;;;;;;;7.93;5.82;;;;;;;24.20;92.51;97407.81;4991462;28;20075;-62
2023/08/17 09:48:29;;;;;;;7.10;4.80;;;;;;;24.33;92.06;97408.66;5022401;28;20054;-62
2023/08/17 09:50:59;;;;;;;6.25;4.50;;;;;;;24.52;90.89;97405.34;4998379;28;20532;-62
2023/08/17 09:53:25;;;;;;;6.75;5.55;;;;;;;24.63;89.04;97396.56;4977578;28;20043;-62
2023/08/17 09:55:53;;;;;;;6.57;4.95;;;;;;;24.77;89.47;97399.81;4971360;28;20047;-62
2023/08/17 09:58:20;;;;;;;11.18;5.82;;;;;;;24.88;87.49;97391.88;5042270;28;20045;-61
2023/08/17 10:00:49;;;;;;;7.90;5.30;;;;;;;25.13;87.12;97388.28;5024457;28;20108;-62
2023/08/17 10:03:19;;;;;;;6.85;5.07;;;;;;;25.18;86.09;97394.38;4997829;28;20051;-62
2023/08/17 10:05:53;;;;;;;6.18;4.75;;;;;;;25.31;86.64;97392.41;5000722;28;20044;-62
2023/08/17 10:08:22;;;;;;;7.35;4.88;;;;;;;25.44;84.77;97386.84;4987725;28;20039;-62
2023/08/17 10:10:51;;;;;;;7.65;4.80;;;;;;;25.47;84.70;97383.38;4972262;28;20047;-62
2023/08/17 10:13:31;;;;;;;7.40;5.40;;;;;;;25.32;84.36;97385.69;5024975;28;20122;-62
2023/08/17 10:16:19;;;;;;;8.15;4.38;;;;;;;25.37;84.37;97378.31;5015046;28;20043;-62
2023/08/17 10:19:04;;;;;;;8.10;5.18;;;;;;;25.48;85.13;97375.84;5000289;28;20439;-62
2023/08/17 10:21:40;;;;;;;5.80;4.15;;;;;;;25.62;83.29;97376.31;4990444;28;20339;-62
2023/08/17 10:24:07;;;;;;;5.63;4.45;;;;;;;25.74;82.30;97380.19;4972322;28;20663;-62
2023/08/17 10:26:34;;;;;;;5.35;4.25;;;;;;;25.86;82.06;97385.66;5001165;28;20100;-62
2023/08/17 10:29:02;;;;;;;6.45;4.50;;;;;;;25.77;80.62;97383.06;5009295;28;20072;-61
2023/08/17 10:31:39;;;;;;;8.00;5.05;;;;;;;25.83;80.44;97394.69;4988391;28;20424;-62
2023/08/17 10:34:06;;;;;;;7.82;4.93;;;;;;;25.74;80.55;97388.50;5003934;28;20042;-61
2023/08/17 10:36:33;;;;;;;8.40;5.10;;;;;;;25.66;80.00;97384.72;5019617;28;20059;-61
2023/08/17 10:39:20;;;;;;;7.10;4.50;;;;;;;25.63;78.53;97388.19;4972741;28;20043;-61
2023/08/17 10:41:50;;;;;;;7.82;4.60;;;;;;;25.56;78.61;97389.59;4985659;28;20050;-62
2023/08/17 10:44:40;;;;;;;5.82;4.45;;;;;;;25.81;79.61;97380.38;5002147;28;20037;-62
2023/08/17 10:47:24;;;;;;;8.68;5.03;;;;;;;26.06;80.25;97383.84;5003275;28;20068;-62
2023/08/17 10:49:55;;;;;;;7.55;5.00;;;;;;;26.08;79.69;97378.75;4998866;28;20054;-63
2023/08/17 10:52:28;;;;;;;9.45;5.05;;;;;;;26.19;78.43;97386.53;4982984;28;20049;-63
2023/08/17 10:54:56;;;;;;;8.27;5.22;;;;;;;26.28;78.35;97376.13;4971325;28;20074;-61
2023/08/17 10:57:33;;;;;;;6.68;4.85;;;;;;;26.41;76.75;97376.03;5019059;28;20058;-62
2023/08/17 11:00:11;;;;;;;7.63;5.32;;;;;;;26.29;75.87;97374.16;5035181;28;20061;-62
2023/08/17 11:02:38;;;;;;;8.13;5.45;;;;;;;26.53;78.01;97375.94;4991938;28;20036;-63
2023/08/17 11:05:07;;;;;;;8.43;5.30;;;;;;;26.57;77.94;97374.06;4985415;28;20191;-62
2023/08/17 11:07:44;;;;;;;8.88;5.18;;;;;;;26.60;77.01;97369.75;4980954;28;20047;-63
2023/08/17 11:10:31;;;;;;;7.88;4.97;;;;;;;26.88;75.88;97371.63;4971990;28;20054;-63
2023/08/17 11:12:59;;;;;;;7.22;5.43;;;;;;;27.00;76.25;97376.28;4998031;28;20052;-61
2023/08/17 11:15:37;;;;;;;7.93;4.80;;;;;;;27.18;77.46;97365.59;4946558;28;20392;-61
2023/08/17 11:18:13;;;;;;;7.40;5.00;;;;;;;27.11;77.25;97373.75;4947561;28;20849;-63
2023/08/17 11:20:41;;;;;;;10.60;6.03;;;;;;;26.94;77.66;97369.38;4989093;28;20058;-64
2023/08/17 11:23:09;;;;;;;7.90;5.93;;;;;;;26.90;78.89;97366.50;4983772;28;20046;-63